Zenda, WI (53195)

12:16 AM CDT del 27 Settembre 2016 (GMT -0500)
Abbey Springs | | Change Station

Alt. 922 ft 42.54 °N, 88.55 °W | Updated 15 seconds ago

Clear
Sereno
54.0 °F
Sembra 54.0 °F
N
5.0
Vento Variabile Vento da Sud

Oggi
Massima -- | Minima -- °F
--% Possibilità di precip.
Ieri
Massima -- | Minima -- °F
Precip. -- in
Pressione 29.86 in
Visibilità 10.0 miglia
Nuvole Sereno
Punto di rugiada 39 °F
Umidità 56%
Piovosità 0.00 in
Spessore del manto nevoso Non disponibile.
6:47 AM 6:41 PM
Luna calante, 14% visible
METAR KBUU 270455Z AUTO 24007KT 10SM CLR 12/02 A2986 RMK AO2 T01150021
Pressione 29.86 in
Visibilità 10.0 miglia
Nuvole Sereno
Punto di rugiada 39 °F
Umidità 56%
Piovosità 0.00 in
Spessore del manto nevoso Non disponibile.
6:47 AM 6:41 PM
Luna calante, 14% visible
METAR KBUU 270455Z AUTO 24007KT 10SM CLR 12/02 A2986 RMK AO2 T01150021

10-Day Weather Forecast

Almanac

Astronomia

Sep. 27, 2016 Alba Tramonto
Ora attuale
Crepuscolo civile
Crepuscolo nautico
Crepuscolo astronomico
Luna
Estensione della luce visibile
Lunghezza del giorno
Tomorrow will be .
, % of the Moon is Illuminated

Gli estremi di oggi

State Highs State Lows

Community

WunderPhotos

Upload Photos

1,942,038 foto caricate!

WunderBlog® & News

Nearby

Qualità dell'aria

  Qualità dell'aria Indice AQ Inquinante
Not available.

Profondità neve

Stazione Profondità Altitudine

Attività sismica

Città  Distanza Mag. Data & Ora
Minimo Magnitudo Mostrato è 2.5.

Temperature delle acque costiere

Località Temperatura

Stations

Stazioni meteo nelle vicinanze

Ubicazione della stazione Temp. Raffreddamento del vento Punto di rugiada Umidità Vento Precip. Alt. Aggiornato Tipo
                   

Watches & Warnings

There are currently no watches in effect.